Time;durP1;ratioP1;P1;durP2;ratioP2;P2;SDS_P1;SDS_P2;PMS_P1;PMS_P2;Temp;Humidity;BMP_temperature;BMP_pressure;BME280_temperature;BME280_humidity;BME280_pressure;Samples;Min_cycle;Max_cycle;Signal;HPM_P1;HPM_P2
2022/10/28 00:00:00;;;;;;;18.40;8.15;;;14.80;99.90;;;;;;5014106;28;20025;-94
2022/10/28 00:02:26;;;;;;;17.50;7.40;;;14.80;99.90;;;;;;5009604;28;20041;-93
2022/10/28 00:04:51;;;;;;;18.58;7.38;;;14.80;99.90;;;;;;5009402;28;20470;-92
2022/10/28 00:07:17;;;;;;;14.57;8.18;;;14.70;99.90;;;;;;5011499;28;20474;-93
2022/10/28 00:09:43;;;;;;;14.85;8.50;;;14.70;99.90;;;;;;5004783;28;20030;-91
2022/10/28 00:12:08;;;;;;;16.05;7.82;;;14.70;99.90;;;;;;5015119;28;20030;-92
2022/10/28 00:14:34;;;;;;;17.35;7.63;;;14.70;99.90;;;;;;5013272;28;20123;-93
2022/10/28 00:16:59;;;;;;;18.92;7.85;;;14.70;99.90;;;;;;5015313;28;20144;-94
2022/10/28 00:19:25;;;;;;;19.77;7.78;;;14.70;99.90;;;;;;5006779;28;20482;-92
2022/10/28 00:21:51;;;;;;;20.48;8.70;;;14.60;99.90;;;;;;5032382;28;20034;-92
2022/10/28 00:24:16;;;;;;;14.07;7.82;;;14.60;99.90;;;;;;5013199;28;20033;-92
2022/10/28 00:26:42;;;;;;;15.30;7.82;;;14.60;99.90;;;;;;5014018;28;20389;-91
2022/10/28 00:29:12;;;;;;;14.13;7.13;;;14.60;99.90;;;;;;5010937;28;20109;-92
2022/10/28 00:31:38;;;;;;;12.73;7.10;;;14.60;99.90;;;;;;5026452;28;20106;-92
2022/10/28 00:34:06;;;;;;;15.10;7.63;;;14.60;99.90;;;;;;5026530;28;20033;-93
2022/10/28 00:36:35;;;;;;;21.30;7.72;;;14.60;99.90;;;;;;5028951;28;20026;-94
2022/10/28 00:39:03;;;;;;;16.58;7.10;;;14.70;99.90;;;;;;5024514;28;20092;-92
2022/10/28 00:41:36;;;;;;;19.70;7.72;;;14.70;99.90;;;;;;5016034;28;20540;-93
2022/10/28 00:44:40;;;;;;;14.68;7.50;;;14.70;99.90;;;;;;5004952;28;20034;-92
2022/10/28 00:47:16;;;;;;;14.32;6.82;;;14.80;99.90;;;;;;5017669;28;20043;-92
2022/10/28 00:49:43;;;;;;;12.65;7.30;;;14.80;99.90;;;;;;5016297;28;20026;-92
2022/10/28 00:52:13;;;;;;;12.65;6.80;;;14.80;99.90;;;;;;5015455;28;20041;-93
2022/10/28 00:54:39;;;;;;;16.83;7.53;;;14.80;99.90;;;;;;5031963;28;20029;-92
2022/10/28 00:57:10;;;;;;;13.40;6.55;;;14.80;99.90;;;;;;5015735;28;20029;-91
2022/10/28 00:59:40;;;;;;;15.88;7.40;;;14.80;99.90;;;;;;5014570;28;20389;-91
2022/10/28 01:02:06;;;;;;;14.07;7.10;;;14.80;99.90;;;;;;5005227;28;20044;-93
2022/10/28 01:04:32;;;;;;;17.02;7.40;;;14.70;99.90;;;;;;5013361;28;20382;-93
2022/10/28 01:07:00;;;;;;;18.42;8.73;;;14.70;99.90;;;;;;5022186;28;20025;-93
2022/10/28 01:09:26;;;;;;;19.00;6.82;;;14.60;99.90;;;;;;5010135;28;20080;-93
2022/10/28 01:12:19;;;;;;;17.42;7.70;;;14.60;99.90;;;;;;5007096;28;20417;-91
2022/10/28 01:15:03;;;;;;;13.95;7.53;;;14.70;99.90;;;;;;5031255;28;20026;-92
2022/10/28 01:17:32;;;;;;;17.35;7.63;;;14.60;99.90;;;;;;5033377;28;20069;-93
2022/10/28 01:20:09;;;;;;;17.98;8.02;;;14.60;99.90;;;;;;5015494;28;20026;-92
2022/10/28 01:23:10;;;;;;;18.60;7.72;;;14.60;99.90;;;;;;4999641;28;20038;-93
2022/10/28 01:26:12;;;;;;;12.95;7.13;;;14.60;99.90;;;;;;4985919;28;20099;-92
2022/10/28 01:29:17;;;;;;;15.50;7.25;;;14.60;99.90;;;;;;5014891;28;20029;-93
2022/10/28 01:31:56;;;;;;;16.48;7.88;;;14.60;99.90;;;;;;5015018;28;20025;-92
2022/10/28 01:34:55;;;;;;;23.17;7.88;;;14.60;99.90;;;;;;5016325;28;20063;-92
2022/10/28 01:37:35;;;;;;;18.52;8.02;;;14.60;99.90;;;;;;5014469;28;20045;-93
2022/10/28 01:40:07;;;;;;;14.68;7.93;;;14.70;99.90;;;;;;5014756;28;20037;-91
2022/10/28 01:42:39;;;;;;;16.08;7.43;;;14.70;99.90;;;;;;5006632;28;20038;-91
2022/10/28 01:45:31;;;;;;;17.50;8.32;;;14.70;99.90;;;;;;5012065;28;20021;-92
2022/10/28 01:48:01;;;;;;;;;;;14.70;99.90;;;;;;4988932;28;20030;-93
2022/10/28 01:50:52;;;;;;;18.65;8.93;;;14.70;99.90;;;;;;5010581;28;19909;-92
2022/10/28 01:53:23;;;;;;;17.10;8.20;;;14.70;99.90;;;;;;5008682;28;20033;-92
2022/10/28 01:55:52;;;;;;;19.00;8.00;;;14.70;99.90;;;;;;5013362;28;20107;-93
2022/10/28 01:58:24;;;;;;;21.00;7.60;;;14.70;99.90;;;;;;4995922;28;20026;-93
2022/10/28 02:00:50;;;;;;;19.38;7.88;;;14.70;99.90;;;;;;5007704;28;20696;-92
2022/10/28 02:03:16;;;;;;;17.23;8.07;;;14.70;99.90;;;;;;5014856;28;20037;-93
2022/10/28 02:06:03;;;;;;;16.65;8.57;;;14.70;99.90;;;;;;5030058;28;20031;-93
2022/10/28 02:08:37;;;;;;;13.93;7.38;;;14.70;99.90;;;;;;5033271;28;20057;-92
2022/10/28 02:11:41;;;;;;;16.52;7.28;;;14.70;99.90;;;;;;5016250;28;20112;-92
2022/10/28 02:14:42;;;;;;;17.45;8.40;;;14.70;99.90;;;;;;5010646;28;20041;-92
2022/10/28 02:17:26;;;;;;;18.52;8.82;;;14.70;99.90;;;;;;4978653;28;20152;-93
2022/10/28 02:20:23;;;;;;;19.77;9.02;;;14.70;99.90;;;;;;5010623;28;20030;-93
2022/10/28 02:22:53;;;;;;;11.43;7.50;;;14.70;99.90;;;;;;5014595;28;20033;-92
2022/10/28 02:25:31;;;;;;;21.63;8.88;;;14.80;99.90;;;;;;5015661;28;20025;-93
2022/10/28 02:27:56;;;;;;;22.15;8.27;;;14.80;99.90;;;;;;5015311;28;20107;-93
2022/10/28 02:30:24;;;;;;;23.42;8.23;;;14.70;99.90;;;;;;5013202;28;20042;-92
2022/10/28 02:32:56;;;;;;;15.77;7.03;;;14.80;99.90;;;;;;5013424;28;20065;-93
2022/10/28 02:35:28;;;;;;;14.02;7.47;;;14.80;99.90;;;;;;5032238;28;20029;-92
2022/10/28 02:37:55;;;;;;;15.60;8.43;;;14.80;99.90;;;;;;5026913;28;20025;-92
2022/10/28 02:40:25;;;;;;;18.95;8.63;;;14.80;99.90;;;;;;5018483;28;20029;-92
2022/10/28 02:42:56;;;;;;;16.08;7.35;;;14.80;99.90;;;;;;5030943;28;20119;-93
2022/10/28 02:45:27;;;;;;;17.58;8.10;;;14.80;99.90;;;;;;5030193;28;20033;-91
2022/10/28 02:48:01;;;;;;;14.63;8.02;;;14.80;99.90;;;;;;5034964;28;20030;-93
2022/10/28 02:50:35;;;;;;;18.00;8.27;;;14.80;99.90;;;;;;5033953;28;20405;-92
2022/10/28 02:53:03;;;;;;;17.73;7.40;;;14.90;99.90;;;;;;5015987;28;20126;-92
2022/10/28 02:55:37;;;;;;;14.05;6.88;;;14.80;99.90;;;;;;5016441;28;20461;-92
2022/10/28 02:58:04;;;;;;;15.68;7.85;;;14.80;99.90;;;;;;5018469;28;20065;-93
2022/10/28 03:00:30;;;;;;;13.10;6.97;;;14.90;99.90;;;;;;5020261;28;20043;-92
2022/10/28 03:02:55;;;;;;;19.30;7.18;;;14.90;99.90;;;;;;5013189;28;20108;-92
2022/10/28 03:05:21;;;;;;;15.20;7.80;;;14.90;99.90;;;;;;5019588;28;20111;-92
2022/10/28 03:07:46;;;;;;;16.52;6.70;;;14.90;99.90;;;;;;5021876;28;20111;-93
2022/10/28 03:10:12;;;;;;;20.23;7.22;;;14.90;99.90;;;;;;5016925;28;20100;-93
2022/10/28 03:12:38;;;;;;;15.43;7.60;;;14.90;99.90;;;;;;5018976;28;20060;-92
2022/10/28 03:15:04;;;;;;;20.40;7.10;;;14.90;99.90;;;;;;5015760;28;20033;-90
2022/10/28 03:17:29;;;;;;;17.13;7.43;;;14.90;99.90;;;;;;5024052;28;20032;-92
2022/10/28 03:19:55;;;;;;;13.75;6.70;;;14.90;99.90;;;;;;5026718;28;20021;-91
2022/10/28 03:22:21;;;;;;;15.25;7.35;;;14.90;99.90;;;;;;5012810;28;20402;-92
2022/10/28 03:24:46;;;;;;;14.55;7.38;;;14.90;99.90;;;;;;5008160;28;20037;-93
2022/10/28 03:27:12;;;;;;;16.65;6.88;;;14.90;99.90;;;;;;5034235;28;20032;-92
2022/10/28 03:29:37;;;;;;;14.77;7.32;;;14.90;99.90;;;;;;5046517;28;20060;-93
2022/10/28 03:32:03;;;;;;;16.15;7.07;;;14.80;99.90;;;;;;5014473;28;20030;-94
2022/10/28 03:34:29;;;;;;;16.52;7.45;;;14.80;99.90;;;;;;5016756;28;20025;-92
2022/10/28 03:36:54;;;;;;;12.73;6.50;;;14.80;99.90;;;;;;5010054;28;20036;-92
2022/10/28 03:39:20;;;;;;;15.65;6.43;;;14.80;99.90;;;;;;5018133;28;20429;-92
2022/10/28 03:41:46;;;;;;;14.75;6.15;;;14.80;99.90;;;;;;5007985;28;20125;-92
2022/10/28 03:44:11;;;;;;;13.95;6.82;;;14.80;99.90;;;;;;5034594;28;20033;-93
2022/10/28 03:46:37;;;;;;;16.85;6.22;;;14.70;99.90;;;;;;5019085;28;20033;-93
2022/10/28 03:49:03;;;;;;;17.00;6.38;;;14.80;99.90;;;;;;5026704;28;20352;-93
2022/10/28 03:51:29;;;;;;;15.52;6.60;;;14.80;99.90;;;;;;5033861;28;20068;-93
2022/10/28 03:53:54;;;;;;;13.70;7.07;;;14.90;99.90;;;;;;5017593;28;20448;-93
2022/10/28 03:56:20;;;;;;;12.70;6.50;;;14.90;99.90;;;;;;5009865;28;20057;-92
2022/10/28 03:58:49;;;;;;;11.05;6.18;;;14.90;99.90;;;;;;5027455;28;20026;-92
2022/10/28 04:01:15;;;;;;;13.80;6.05;;;14.90;99.90;;;;;;4998913;28;20561;-91
2022/10/28 04:03:40;;;;;;;12.75;6.03;;;14.90;99.90;;;;;;5016206;28;20493;-91
2022/10/28 04:06:08;;;;;;;18.73;7.00;;;15.00;99.90;;;;;;5025518;28;20033;-93
2022/10/28 04:08:35;;;;;;;13.48;6.55;;;15.00;99.90;;;;;;5017274;28;20137;-92
2022/10/28 04:11:00;;;;;;;19.25;6.80;;;15.00;99.90;;;;;;5016146;28;20029;-91
2022/10/28 04:13:26;;;;;;;12.98;5.65;;;15.00;99.90;;;;;;5014132;28;20478;-94
2022/10/28 04:15:51;;;;;;;12.23;5.78;;;15.00;99.90;;;;;;5009929;28;20029;-93
2022/10/28 04:18:17;;;;;;;16.27;6.18;;;15.00;99.90;;;;;;5011660;28;20028;-92
2022/10/28 04:20:44;;;;;;;16.88;6.00;;;15.00;99.90;;;;;;5016486;28;20040;-93
2022/10/28 04:23:15;;;;;;;13.48;6.50;;;14.90;99.90;;;;;;5016038;28;20037;-93
2022/10/28 04:25:40;;;;;;;16.23;6.30;;;14.90;99.90;;;;;;5032963;28;20025;-92
2022/10/28 04:28:06;;;;;;;11.60;5.70;;;14.90;99.90;;;;;;5020641;28;20029;-92
2022/10/28 04:30:31;;;;;;;12.90;5.88;;;14.90;99.90;;;;;;5022800;28;20050;-92
2022/10/28 04:32:57;;;;;;;11.43;6.05;;;14.90;99.90;;;;;;5016271;28;20057;-93
2022/10/28 04:35:23;;;;;;;22.55;6.47;;;14.90;99.90;;;;;;5015291;28;20034;-92
2022/10/28 04:37:49;;;;;;;13.73;6.55;;;14.90;99.90;;;;;;5008451;28;20021;-91
2022/10/28 04:40:14;;;;;;;15.20;5.60;;;14.90;99.90;;;;;;5016119;28;20032;-92
2022/10/28 04:42:40;;;;;;;20.20;6.60;;;14.90;99.90;;;;;;5008052;28;20409;-93
2022/10/28 04:45:07;;;;;;;13.95;6.57;;;14.80;99.90;;;;;;5006515;28;20397;-94
2022/10/28 04:47:32;;;;;;;14.35;6.07;;;14.80;99.90;;;;;;5016255;28;20028;-92
2022/10/28 04:49:58;;;;;;;17.30;5.82;;;14.80;99.90;;;;;;5013727;28;20022;-93
2022/10/28 04:52:23;;;;;;;14.77;5.57;;;14.80;99.90;;;;;;5011032;28;20032;-93
2022/10/28 04:54:49;;;;;;;13.02;6.15;;;14.80;99.90;;;;;;5014638;28;20516;-93
2022/10/28 04:57:14;;;;;;;15.43;6.25;;;14.70;99.90;;;;;;5016551;28;20091;-92
2022/10/28 04:59:40;;;;;;;17.67;5.75;;;14.70;99.90;;;;;;5033147;28;20025;-92
2022/10/28 05:02:06;;;;;;;10.45;5.70;;;14.70;99.90;;;;;;5015430;28;20464;-92
2022/10/28 05:04:31;;;;;;;15.32;6.00;;;14.70;99.90;;;;;;5016618;28;20485;-93
2022/10/28 05:06:57;;;;;;;10.88;5.40;;;14.70;99.90;;;;;;5011220;28;20018;-93
2022/10/28 05:09:22;;;;;;;11.80;5.50;;;14.70;99.90;;;;;;5014744;28;20022;-93
2022/10/28 05:11:48;;;;;;;13.93;5.28;;;14.60;99.90;;;;;;5014626;28;20049;-90
2022/10/28 05:14:13;;;;;;;20.13;5.97;;;14.60;99.90;;;;;;5015443;28;20163;-93
2022/10/28 05:16:39;;;;;;;11.57;5.95;;;14.60;99.90;;;;;;5013903;28;20635;-92
2022/10/28 05:19:04;;;;;;;16.90;5.80;;;14.70;99.90;;;;;;5013094;28;20033;-92
2022/10/28 05:21:30;;;;;;;9.63;5.15;;;14.70;99.90;;;;;;5010044;28;20164;-92
2022/10/28 05:23:56;;;;;;;12.05;5.57;;;14.70;99.90;;;;;;5011799;28;20393;-93
2022/10/28 05:26:21;;;;;;;13.13;5.72;;;14.70;99.90;;;;;;5013103;28;20503;-91
2022/10/28 05:28:50;;;;;;;11.10;5.13;;;14.70;99.90;;;;;;5015393;28;20021;-93
2022/10/28 05:31:17;;;;;;;12.68;5.30;;;14.80;99.90;;;;;;5012469;28;20057;-92
2022/10/28 05:33:42;;;;;;;15.48;5.53;;;14.70;99.90;;;;;;5011091;28;20024;-92
2022/10/28 05:36:08;;;;;;;9.10;5.18;;;14.70;99.90;;;;;;5014277;28;20128;-94
2022/10/28 05:38:34;;;;;;;21.60;5.22;;;14.70;99.90;;;;;;5015059;28;20037;-94
2022/10/28 05:40:59;;;;;;;15.32;5.43;;;14.60;99.90;;;;;;5029717;28;20037;-94
2022/10/28 05:43:25;;;;;;;12.93;5.78;;;14.60;99.90;;;;;;5014690;28;20029;-94
2022/10/28 05:45:52;;;;;;;11.68;5.75;;;14.60;99.90;;;;;;5007445;28;20029;-92
2022/10/28 05:48:18;;;;;;;17.88;5.63;;;14.50;99.90;;;;;;4997361;28;20032;-93
2022/10/28 05:50:44;;;;;;;11.98;5.60;;;14.50;99.90;;;;;;5002720;28;20025;-92
2022/10/28 05:53:09;;;;;;;12.85;6.05;;;14.40;99.90;;;;;;5012398;28;20025;-93
2022/10/28 05:55:35;;;;;;;14.15;5.60;;;14.40;99.90;;;;;;5014087;28;20108;-92
2022/10/28 05:58:01;;;;;;;14.80;6.55;;;14.40;99.90;;;;;;5015981;28;20544;-94
2022/10/28 06:00:27;;;;;;;14.48;5.70;;;14.40;99.90;;;;;;5011063;28;20112;-93
2022/10/28 06:03:08;;;;;;;13.98;5.35;;;14.40;99.90;;;;;;5011897;28;20164;-92
2022/10/28 06:05:34;;;;;;;17.27;6.70;;;14.30;99.90;;;;;;5013024;28;20033;-93
2022/10/28 06:08:00;;;;;;;13.35;5.60;;;14.30;99.90;;;;;;5006696;28;20496;-93
2022/10/28 06:10:25;;;;;;;15.05;6.07;;;14.30;99.90;;;;;;5013997;28;20037;-92
2022/10/28 06:12:54;;;;;;;15.98;6.55;;;14.30;99.90;;;;;;5017052;28;20026;-93
2022/10/28 06:15:20;;;;;;;17.80;6.10;;;14.30;99.90;;;;;;5013909;28;20036;-92
2022/10/28 06:17:49;;;;;;;10.40;5.63;;;14.20;99.90;;;;;;5016088;28;20033;-93
2022/10/28 06:20:17;;;;;;;21.42;5.93;;;14.20;99.90;;;;;;5018386;28;20116;-91
2022/10/28 06:22:49;;;;;;;16.92;5.93;;;14.20;99.90;;;;;;5014425;28;20500;-93
2022/10/28 06:25:15;;;;;;;;;;;14.20;99.90;;;;;;5019059;28;20021;-92
2022/10/28 06:27:40;;;;;;;13.43;6.40;;;14.20;99.90;;;;;;5013070;28;19919;-93
2022/10/28 06:30:06;;;;;;;16.42;6.40;;;14.20;99.90;;;;;;5035023;28;20119;-91
2022/10/28 06:32:32;;;;;;;14.98;5.68;;;14.20;99.90;;;;;;5019037;28;20481;-93
2022/10/28 06:34:58;;;;;;;18.58;5.88;;;14.20;99.90;;;;;;5018007;28;20034;-93
2022/10/28 06:37:23;;;;;;;16.75;6.50;;;14.20;99.90;;;;;;5014806;28;20026;-91
2022/10/28 06:39:51;;;;;;;19.60;6.28;;;14.30;99.90;;;;;;5014391;28;20029;-92
2022/10/28 06:42:17;;;;;;;17.27;5.60;;;14.30;99.90;;;;;;5016721;28;20045;-92
2022/10/28 06:44:43;;;;;;;16.50;6.45;;;14.30;99.90;;;;;;5016972;28;20028;-92
2022/10/28 06:47:08;;;;;;;18.08;5.80;;;14.30;99.90;;;;;;5018449;28;20030;-91
2022/10/28 06:49:34;;;;;;;21.80;6.68;;;14.30;99.90;;;;;;5018119;28;20510;-93
2022/10/28 06:52:00;;;;;;;16.33;5.78;;;14.30;99.90;;;;;;5014832;28;20045;-94
2022/10/28 06:54:25;;;;;;;18.73;5.80;;;14.40;99.90;;;;;;5016989;28;20057;-92
2022/10/28 06:56:51;;;;;;;27.50;6.70;;;14.40;99.90;;;;;;5012842;28;20482;-93
2022/10/28 06:59:16;;;;;;;16.70;6.95;;;14.40;99.90;;;;;;5016496;28;20025;-93
2022/10/28 07:01:42;;;;;;;23.25;6.82;;;14.50;99.90;;;;;;5012957;28;20115;-93
2022/10/28 07:04:11;;;;;;;16.85;5.65;;;14.50;99.90;;;;;;5012320;28;20048;-88
2022/10/28 07:06:37;;;;;;;13.43;6.00;;;14.50;99.90;;;;;;5025296;28;20022;-91
2022/10/28 07:09:03;;;;;;;17.35;6.55;;;14.50;99.90;;;;;;5011708;28;20551;-91
2022/10/28 07:11:28;;;;;;;24.27;7.25;;;14.50;99.90;;;;;;5012071;28;20485;-91
2022/10/28 07:13:54;;;;;;;18.52;6.28;;;14.60;99.90;;;;;;5029121;28;20037;-93
2022/10/28 07:16:19;;;;;;;17.23;5.95;;;14.60;99.90;;;;;;5014681;28;20075;-92
2022/10/28 07:18:45;;;;;;;15.38;6.65;;;14.60;99.90;;;;;;5018070;28;20026;-92
2022/10/28 07:21:12;;;;;;;17.77;6.47;;;14.60;99.90;;;;;;5016163;28;20025;-92
2022/10/28 07:23:38;;;;;;;36.70;9.18;;;14.70;99.90;;;;;;5015215;28;20072;-93
2022/10/28 07:26:04;;;;;;;21.08;6.65;;;14.70;99.90;;;;;;5018166;28;20033;-90
2022/10/28 07:28:30;;;;;;;34.40;8.80;;;14.70;99.90;;;;;;5014655;28;20029;-92
2022/10/28 07:31:01;;;;;;;29.98;8.38;;;14.70;99.90;;;;;;5013107;28;20052;-91
2022/10/28 07:33:26;;;;;;;22.00;8.57;;;14.80;99.90;;;;;;5025128;28;20484;-91
2022/10/28 07:35:52;;;;;;;20.63;6.85;;;14.80;99.90;;;;;;5013792;28;20025;-93
2022/10/28 07:38:18;;;;;;;15.50;6.93;;;14.80;99.90;;;;;;5018528;28;20033;-90
2022/10/28 07:40:43;;;;;;;16.48;7.28;;;14.90;99.90;;;;;;5032989;28;20081;-91
2022/10/28 07:43:11;;;;;;;15.63;7.60;;;14.90;99.90;;;;;;5015535;28;20036;-91
2022/10/28 07:45:37;;;;;;;20.80;7.03;;;15.00;99.90;;;;;;5025089;28;20021;-92
2022/10/28 07:48:04;;;;;;;17.58;6.95;;;15.00;99.90;;;;;;5019513;28;20037;-94
2022/10/28 07:50:29;;;;;;;15.13;6.53;;;15.00;99.90;;;;;;5035308;28;20033;-92
2022/10/28 07:52:55;;;;;;;17.92;7.22;;;15.10;99.90;;;;;;5017540;28;20025;-91
2022/10/28 07:55:21;;;;;;;17.67;7.00;;;15.10;99.90;;;;;;5015159;28;20030;-92
2022/10/28 07:57:48;;;;;;;14.73;6.97;;;15.20;99.90;;;;;;5016994;28;20028;-92
2022/10/28 08:00:13;;;;;;;14.98;7.15;;;15.20;99.90;;;;;;5033400;28;20022;-92
2022/10/28 08:02:39;;;;;;;16.52;7.30;;;15.30;99.90;;;;;;5034826;28;20087;-92
2022/10/28 08:05:05;;;;;;;19.77;7.38;;;15.40;99.90;;;;;;5004754;28;20033;-91
2022/10/28 08:07:31;;;;;;;14.18;6.30;;;15.50;99.90;;;;;;5000653;28;20095;-92
2022/10/28 08:09:57;;;;;;;17.58;7.18;;;15.60;99.90;;;;;;5018098;28;20022;-92
2022/10/28 08:12:23;;;;;;;18.63;6.88;;;15.70;99.90;;;;;;5037708;28;20034;-92
2022/10/28 08:14:49;;;;;;;13.30;6.90;;;15.80;99.90;;;;;;5020081;28;20060;-91
2022/10/28 08:17:15;;;;;;;17.65;7.18;;;16.00;99.90;;;;;;5019014;28;20064;-90
2022/10/28 08:19:40;;;;;;;15.45;5.97;;;16.10;99.90;;;;;;5036497;28;20029;-90
2022/10/28 08:22:06;;;;;;;15.35;6.50;;;16.30;99.90;;;;;;5016276;28;20481;-92
2022/10/28 08:24:32;;;;;;;11.02;5.40;;;16.40;99.90;;;;;;5003524;28;20025;-93
2022/10/28 08:26:58;;;;;;;12.32;6.50;;;16.50;99.90;;;;;;5014933;28;20033;-92
2022/10/28 08:29:23;;;;;;;14.15;6.15;;;16.60;99.90;;;;;;5016668;28;20168;-93
2022/10/28 08:31:49;;;;;;;10.80;5.97;;;16.60;99.90;;;;;;5020037;28;20066;-92
2022/10/28 08:34:14;;;;;;;23.20;7.22;;;16.70;99.90;;;;;;5015401;28;20060;-89
2022/10/28 08:36:40;;;;;;;14.25;6.03;;;16.80;99.90;;;;;;5014323;28;20037;-93
2022/10/28 08:39:06;;;;;;;21.17;7.63;;;16.90;99.90;;;;;;5016819;28;20029;-91
2022/10/28 08:41:37;;;;;;;16.05;7.15;;;17.00;99.90;;;;;;5037856;28;20113;-91
2022/10/28 08:44:40;;;;;;;14.27;7.85;;;17.10;99.90;;;;;;5039038;28;20029;-92
2022/10/28 08:47:21;;;;;;;16.65;6.93;;;17.10;99.90;;;;;;5034111;28;20120;-91
2022/10/28 08:49:50;;;;;;;16.95;6.50;;;17.30;99.90;;;;;;5012715;28;20460;-91
2022/10/28 08:52:40;;;;;;;17.25;6.10;;;17.40;99.90;;;;;;5022444;28;20076;-92
2022/10/28 08:55:17;;;;;;;9.90;5.60;;;17.50;99.90;;;;;;5017410;28;20038;-93
2022/10/28 08:58:08;;;;;;;12.40;5.88;;;17.60;99.90;;;;;;5031210;28;20025;-92
2022/10/28 09:00:36;;;;;;;19.38;6.55;;;17.70;99.90;;;;;;5028049;28;20043;-92
2022/10/28 09:03:11;;;;;;;18.40;6.05;;;17.90;99.90;;;;;;5028914;28;20067;-92
2022/10/28 09:05:39;;;;;;;12.57;5.55;;;18.10;99.90;;;;;;5018714;28;20025;-93
2022/10/28 09:08:05;;;;;;;14.73;6.05;;;18.20;99.90;;;;;;5008537;28;20075;-93
2022/10/28 09:10:43;;;;;;;13.05;5.38;;;18.40;99.90;;;;;;5012317;28;20038;-87
2022/10/28 09:13:29;;;;;;;12.55;4.90;;;18.60;99.90;;;;;;5026902;28;20025;-87
2022/10/28 09:16:25;;;;;;;13.52;4.90;;;18.80;99.90;;;;;;5025013;28;20041;-86
2022/10/28 09:18:53;;;;;;;20.10;5.03;;;19.10;99.90;;;;;;5012348;28;20065;-88
2022/10/28 09:21:28;;;;;;;14.18;5.10;;;19.20;99.90;;;;;;5030767;28;20033;-87
2022/10/28 09:24:00;;;;;;;12.15;4.63;;;19.30;99.90;;;;;;5028644;28;20033;-88
2022/10/28 09:26:42;;;;;;;13.23;4.70;;;19.40;99.90;;;;;;5017363;28;20132;-88
2022/10/28 09:29:18;;;;;;;16.30;5.10;;;19.50;99.90;;;;;;5013455;28;20505;-92
2022/10/28 09:31:57;;;;;;;15.30;4.88;;;19.60;99.90;;;;;;5028470;28;20030;-92
2022/10/28 09:34:48;;;;;;;11.02;3.60;;;19.60;99.90;;;;;;5019850;28;20386;-92
2022/10/28 09:37:39;;;;;;;9.13;4.90;;;19.70;99.90;;;;;;5032200;28;20039;-91
2022/10/28 09:40:24;;;;;;;13.70;3.92;;;19.70;99.90;;;;;;5009260;28;20028;-93
2022/10/28 09:43:08;;;;;;;12.30;4.07;;;19.80;99.90;;;;;;5015091;28;20193;-95
2022/10/28 09:45:38;;;;;;;17.27;4.20;;;19.80;99.90;;;;;;5019931;28;20044;-93
2022/10/28 09:48:23;;;;;;;12.02;3.45;;;19.80;99.90;;;;;;5020836;28;20489;-92
2022/10/28 09:50:54;;;;;;;12.63;3.97;;;19.90;99.90;;;;;;5028669;28;20032;-91
2022/10/28 09:53:39;;;;;;;15.80;4.93;;;19.90;99.90;;;;;;5014422;28;20481;-92
2022/10/28 09:56:05;;;;;;;12.75;3.83;;;19.90;99.90;;;;;;5034695;28;20116;-92
2022/10/28 09:58:33;;;;;;;13.75;4.18;;;19.90;99.90;;;;;;5022734;28;20064;-93
2022/10/28 10:00:58;;;;;;;9.55;3.35;;;19.90;99.90;;;;;;5022775;28;20034;-92
2022/10/28 10:03:24;;;;;;;15.85;3.90;;;19.90;99.90;;;;;;5021923;28;20056;-92
2022/10/28 10:05:54;;;;;;;11.68;4.15;;;20.00;99.90;;;;;;5021609;28;20033;-93
2022/10/28 10:08:21;;;;;;;12.75;3.92;;;20.10;99.90;;;;;;5022009;28;20034;-92
2022/10/28 10:11:00;;;;;;;14.10;3.47;;;20.10;99.90;;;;;;5022195;28;20028;-93
2022/10/28 10:13:31;;;;;;;10.45;3.17;;;20.20;99.90;;;;;;5037202;28;20030;-93
2022/10/28 10:16:06;;;;;;;15.05;3.20;;;20.30;99.90;;;;;;5018575;28;20026;-91
2022/10/28 10:18:32;;;;;;;11.60;3.40;;;20.40;99.90;;;;;;5021520;28;20025;-94
2022/10/28 10:20:58;;;;;;;10.07;3.17;;;20.40;99.90;;;;;;5020371;28;20033;-92
2022/10/28 10:23:32;;;;;;;11.10;4.13;;;20.50;99.90;;;;;;5039381;28;20034;-93
2022/10/28 10:26:04;;;;;;;11.07;3.53;;;20.60;99.90;;;;;;5022575;28;20029;-91
2022/10/28 10:28:32;;;;;;;13.75;3.97;;;20.60;99.90;;;;;;5018928;28;20045;-92
2022/10/28 10:31:02;;;;;;;11.27;3.75;;;20.60;99.90;;;;;;5014100;28;20041;-93
2022/10/28 10:33:32;;;;;;;13.90;4.03;;;20.70;99.90;;;;;;5040259;28;20036;-92
2022/10/28 10:36:02;;;;;;;18.17;4.40;;;20.70;99.90;;;;;;5022309;28;20025;-91
2022/10/28 10:38:30;;;;;;;11.60;3.28;;;20.80;99.90;;;;;;5021361;28;20013;-92
2022/10/28 10:40:56;;;;;;;11.73;3.70;;;20.90;99.90;;;;;;5019811;28;20029;-92
2022/10/28 10:43:33;;;;;;;13.02;3.15;;;20.90;99.90;;;;;;5022650;28;20033;-94
2022/10/28 10:46:28;;;;;;;12.27;3.35;;;20.90;99.90;;;;;;5004882;28;20066;-94
2022/10/28 10:49:11;;;;;;;10.88;3.85;;;20.90;99.90;;;;;;5009176;28;20041;-92
2022/10/28 10:51:40;;;;;;;13.60;3.50;;;21.00;99.90;;;;;;5021494;28;20057;-92
2022/10/28 10:54:12;;;;;;;16.65;3.70;;;21.00;99.90;;;;;;5021583;28;20381;-93
2022/10/28 10:56:37;;;;;;;7.95;3.38;;;21.00;99.90;;;;;;5015610;28;20040;-94
2022/10/28 10:59:11;;;;;;;9.73;3.40;;;21.10;99.90;;;;;;5007612;28;20401;-93
2022/10/28 11:01:38;;;;;;;10.95;3.55;;;21.20;99.90;;;;;;5018117;28;20065;-92
2022/10/28 11:04:06;;;;;;;9.55;3.60;;;21.20;99.90;;;;;;5030435;28;20028;-92
2022/10/28 11:06:35;;;;;;;15.50;3.50;;;21.30;99.90;;;;;;5018122;28;20029;-92
2022/10/28 11:09:30;;;;;;;13.60;3.53;;;21.40;99.90;;;;;;5001587;28;20029;-93
2022/10/28 11:11:56;;;;;;;7.05;2.78;;;21.50;99.90;;;;;;5014658;28;20500;-93
2022/10/28 11:14:29;;;;;;;13.57;4.43;;;21.60;99.90;;;;;;5018334;28;20033;-92
2022/10/28 11:17:00;;;;;;;8.88;2.40;;;21.70;99.90;;;;;;5019116;28;20159;-93
2022/10/28 11:19:36;;;;;;;12.75;3.30;;;21.70;99.90;;;;;;5018182;28;20029;-93
2022/10/28 11:22:20;;;;;;;13.07;3.88;;;21.90;99.90;;;;;;5020680;28;20040;-92
2022/10/28 11:24:55;;;;;;;10.40;3.20;;;22.00;99.90;;;;;;5016221;28;20030;-92
2022/10/28 11:27:50;;;;;;;9.38;2.47;;;22.10;99.90;;;;;;5010043;28;20025;-93
2022/10/28 11:30:25;;;;;;;11.43;3.15;;;22.30;99.90;;;;;;5034563;28;20133;-92
2022/10/28 11:33:07;;;;;;;11.73;2.75;;;22.40;99.90;;;;;;5015525;28;20116;-93
2022/10/28 11:35:35;;;;;;;13.57;2.80;;;22.50;99.90;;;;;;5014797;28;20054;-92
2022/10/28 11:38:38;;;;;;;10.73;2.97;;;22.60;99.90;;;;;;5016377;28;20106;-93
2022/10/28 11:41:24;;;;;;;12.75;2.72;;;22.70;99.90;;;;;;4981846;28;20044;-92
2022/10/28 11:43:56;;;;;;;9.13;2.30;;;22.70;99.90;;;;;;5010067;28;20036;-93
2022/10/28 11:46:37;;;;;;;5.65;1.95;;;22.70;99.90;;;;;;5014581;28;20584;-93
2022/10/28 11:49:11;;;;;;;11.50;2.60;;;22.80;99.90;;;;;;5017775;28;20196;-93
2022/10/28 11:52:13;;;;;;;9.77;2.30;;;22.80;99.90;;;;;;5004397;28;20030;-92
2022/10/28 11:55:07;;;;;;;10.65;2.38;;;22.80;99.90;;;;;;5027206;28;20039;-95
2022/10/28 11:58:10;;;;;;;11.52;2.35;;;22.80;99.90;;;;;;5035599;28;20022;-92
2022/10/28 12:00:42;;;;;;;8.48;1.88;;;22.90;99.90;;;;;;5028738;28;20029;-93
2022/10/28 12:03:29;;;;;;;9.23;1.80;;;22.90;99.90;;;;;;5014772;28;20418;-92
2022/10/28 12:06:08;;;;;;;7.35;1.80;;;22.90;99.90;;;;;;5017242;28;20474;-93
2022/10/28 12:09:00;;;;;;;14.43;2.35;;;22.90;99.90;;;;;;5017538;28;20034;-93
2022/10/28 12:11:45;;;;;;;16.13;2.95;;;22.90;99.90;;;;;;5009714;28;20033;-95
2022/10/28 12:14:25;;;;;;;8.88;2.15;;;23.00;99.90;;;;;;5029135;28;20091;-94
2022/10/28 12:17:03;;;;;;;13.00;2.13;;;23.10;99.90;;;;;;5005421;28;20026;-94
2022/10/28 12:19:33;;;;;;;9.82;2.17;;;23.10;99.90;;;;;;5013577;28;20029;-94
2022/10/28 12:22:10;;;;;;;11.90;2.13;;;23.10;99.90;;;;;;5016887;28;20038;-93
2022/10/28 12:24:38;;;;;;;12.60;2.33;;;23.10;99.90;;;;;;5015004;28;20018;-93
2022/10/28 12:27:14;;;;;;;12.68;2.22;;;23.10;99.90;;;;;;4997291;28;20033;-92
2022/10/28 12:29:43;;;;;;;6.35;1.90;;;23.20;99.90;;;;;;5011485;28;20045;-93
2022/10/28 12:32:19;;;;;;;13.77;2.40;;;23.10;99.90;;;;;;5034719;28;20033;-92
2022/10/28 12:34:49;;;;;;;7.40;1.92;;;23.10;99.90;;;;;;5017574;28;20021;-92
2022/10/28 12:37:30;;;;;;;5.60;1.40;;;23.20;99.90;;;;;;5034417;28;20037;-93
2022/10/28 12:40:32;;;;;;;8.48;2.00;;;23.20;99.90;;;;;;5016467;28;20040;-93
2022/10/28 12:43:37;;;;;;;13.88;2.42;;;23.10;99.90;;;;;;5032612;28;20030;-94
2022/10/28 12:46:03;;;;;;;11.70;2.83;;;23.00;99.90;;;;;;5015493;28;20545;-94
2022/10/28 12:48:44;;;;;;;8.73;2.60;;;22.90;99.90;;;;;;5010999;28;20511;-94
2022/10/28 12:51:18;;;;;;;6.57;2.08;;;22.90;99.90;;;;;;5018358;28;20386;-94
2022/10/28 12:54:01;;;;;;;14.88;2.33;;;22.90;99.90;;;;;;4999477;28;20022;-92
2022/10/28 12:56:38;;;;;;;8.05;2.00;;;22.90;99.90;;;;;;5016477;28;20022;-94
2022/10/28 12:59:19;;;;;;;7.90;1.75;;;22.90;99.90;;;;;;5013103;28;20108;-94